AFR935 FMMI-LFPG
Flight info
| Callsign | AFR935 |
|---|---|
| Flight time | N/A |
| Altitude | 34000 |
| Route | KEKIN DCT UVGAD UA401 MG UR775 MOGDU UN304 DWA DCT XADOX DCT KONET UG650 RASKA T513 EGMEG G660 JDW M686 OTEMO T55 KUNKI P751 METRU DCT TIGRA DCT BAR DCT PES DCT LOMED DCT AOSTA DCT ORSUD DCT MOLUS DCT UNKIR DCT TINIL |
| Aircraft | B772/H-SDE2E3FGHIJ3J5M1P2RWXYZ/LB1D1 |
Departure
| Time | N/A |
|---|---|
| Airport | Ivato International Airport (FMMI) |
Arrival
| Time | 2026-05-04 19:41 |
|---|---|
| Airport | Charles de Gaulle International Airport (LFPG) |
| Time | Latitude | Longitude | Altitude | Speed | Heading |
|---|---|---|---|---|---|
| 2026-05-04 11:49 | 6.99688 | 43.05385 | 37876 ft | 479 kts | 336° |
| 2026-05-04 11:49 | 7.02731 | 43.04001 | 37876 ft | 479 kts | 336° |
| 2026-05-04 11:50 | 7.08812 | 43.01238 | 37877 ft | 479 kts | 336° |
| 2026-05-04 11:50 | 7.14887 | 42.98474 | 37877 ft | 479 kts | 336° |
| 2026-05-04 11:51 | 7.20911 | 42.95732 | 37877 ft | 478 kts | 336° |
| 2026-05-04 11:51 | 7.26967 | 42.92973 | 37875 ft | 478 kts | 336° |
| 2026-05-04 11:52 | 7.33022 | 42.90215 | 37881 ft | 478 kts | 336° |
| 2026-05-04 11:52 | 7.39079 | 42.87454 | 37880 ft | 478 kts | 336° |
| 2026-05-04 11:53 | 7.45099 | 42.84710 | 37877 ft | 478 kts | 336° |
| 2026-05-04 11:53 | 7.51162 | 42.81946 | 37872 ft | 479 kts | 336° |
| 2026-05-04 11:55 | 7.75415 | 42.70878 | 37871 ft | 480 kts | 336° |
| 2026-05-04 11:56 | 7.81495 | 42.68101 | 37863 ft | 480 kts | 336° |
| 2026-05-04 11:56 | 7.87568 | 42.65326 | 37861 ft | 479 kts | 336° |
| 2026-05-04 11:57 | 7.93641 | 42.62550 | 37867 ft | 479 kts | 336° |
| 2026-05-04 11:57 | 7.99664 | 42.59797 | 37864 ft | 478 kts | 336° |
| 2026-05-04 11:58 | 8.05722 | 42.57026 | 37868 ft | 478 kts | 336° |
| 2026-05-04 11:58 | 8.11775 | 42.54257 | 37871 ft | 478 kts | 336° |
| 2026-05-04 11:59 | 8.17832 | 42.51484 | 37873 ft | 478 kts | 336° |
| 2026-05-04 11:59 | 8.23843 | 42.48733 | 37869 ft | 478 kts | 336° |
| 2026-05-04 12:00 | 8.29898 | 42.45963 | 37876 ft | 478 kts | 336° |
| 2026-05-04 12:00 | 8.35957 | 42.43190 | 37873 ft | 478 kts | 336° |
| 2026-05-04 12:01 | 8.42012 | 42.40417 | 37871 ft | 478 kts | 336° |
| 2026-05-04 12:02 | 8.63202 | 42.30750 | 37877 ft | 479 kts | 336° |
| 2026-05-04 12:03 | 8.69272 | 42.27978 | 37876 ft | 479 kts | 336° |
| 2026-05-04 12:03 | 8.75303 | 42.25223 | 37887 ft | 479 kts | 336° |
| 2026-05-04 12:04 | 8.81378 | 42.22447 | 37886 ft | 479 kts | 336° |
| 2026-05-04 12:04 | 8.87459 | 42.19667 | 37885 ft | 480 kts | 336° |
| 2026-05-04 12:05 | 8.93540 | 42.16886 | 37888 ft | 480 kts | 337° |
| 2026-05-04 12:05 | 8.99580 | 42.14123 | 37899 ft | 480 kts | 338° |
| 2026-05-04 12:06 | 9.05667 | 42.11337 | 37908 ft | 480 kts | 338° |
| 2026-05-04 12:06 | 9.11764 | 42.08547 | 37942 ft | 481 kts | 336° |
| 2026-05-04 12:07 | 9.17865 | 42.05751 | 37925 ft | 482 kts | 337° |
| 2026-05-04 12:07 | 9.23933 | 42.02971 | 37943 ft | 482 kts | 337° |
| 2026-05-04 12:08 | 9.30046 | 42.00170 | 37945 ft | 483 kts | 337° |
| 2026-05-04 12:08 | 9.36175 | 41.97359 | 37946 ft | 484 kts | 336° |
| 2026-05-04 12:09 | 9.42313 | 41.94543 | 37942 ft | 485 kts | 338° |
| 2026-05-04 12:09 | 9.48426 | 41.91739 | 37923 ft | 486 kts | 338° |
| 2026-05-04 12:10 | 9.54582 | 41.88912 | 37927 ft | 486 kts | 336° |
| 2026-05-04 12:10 | 9.60747 | 41.86080 | 37896 ft | 486 kts | 337° |
| 2026-05-04 12:11 | 9.66898 | 41.83220 | 37884 ft | 487 kts | 336° |
| 2026-05-04 12:11 | 9.72965 | 41.80171 | 37848 ft | 487 kts | 334° |
| 2026-05-04 12:12 | 9.78967 | 41.77093 | 37844 ft | 486 kts | 334° |
| 2026-05-04 12:12 | 9.85014 | 41.74016 | 37814 ft | 486 kts | 334° |
| 2026-05-04 12:14 | 10.09136 | 41.61839 | 37782 ft | 484 kts | 334° |
| 2026-05-04 12:15 | 10.15163 | 41.58794 | 37803 ft | 484 kts | 334° |
| 2026-05-04 12:15 | 10.21192 | 41.55746 | 37792 ft | 484 kts | 335° |
| 2026-05-04 12:16 | 10.27184 | 41.52716 | 37797 ft | 485 kts | 334° |
| 2026-05-04 12:16 | 10.33223 | 41.49660 | 37790 ft | 485 kts | 334° |
| 2026-05-04 12:17 | 10.39270 | 41.46599 | 37785 ft | 486 kts | 334° |
| 2026-05-04 12:17 | 10.45326 | 41.43533 | 37789 ft | 486 kts | 334° |
| 2026-05-04 12:18 | 10.51388 | 41.40462 | 37791 ft | 487 kts | 334° |
| 2026-05-04 12:18 | 10.57407 | 41.37411 | 37767 ft | 487 kts | 334° |
| 2026-05-04 12:19 | 10.63464 | 41.34340 | 37768 ft | 486 kts | 334° |
| 2026-05-04 12:19 | 10.69516 | 41.31270 | 37779 ft | 486 kts | 334° |
| 2026-05-04 12:20 | 10.75568 | 41.28198 | 37778 ft | 486 kts | 334° |
| 2026-05-04 12:20 | 10.81574 | 41.25148 | 37776 ft | 486 kts | 334° |
| 2026-05-04 12:21 | 10.87619 | 41.22077 | 37771 ft | 486 kts | 334° |
| 2026-05-04 12:21 | 10.93662 | 41.19007 | 37768 ft | 486 kts | 334° |
| 2026-05-04 12:22 | 10.99706 | 41.15934 | 37766 ft | 486 kts | 334° |
| 2026-05-04 12:22 | 11.05711 | 41.12879 | 37763 ft | 486 kts | 333° |
| 2026-05-04 12:23 | 11.11755 | 41.09804 | 37759 ft | 486 kts | 333° |
| 2026-05-04 12:23 | 11.17801 | 41.06725 | 37765 ft | 486 kts | 333° |
| 2026-05-04 12:24 | 11.23849 | 41.03644 | 37757 ft | 486 kts | 333° |
| 2026-05-04 12:24 | 11.29899 | 41.00561 | 37758 ft | 486 kts | 333° |
| 2026-05-04 12:25 | 11.35908 | 40.97497 | 37762 ft | 486 kts | 333° |
| 2026-05-04 12:25 | 11.41962 | 40.94409 | 37743 ft | 487 kts | 333° |
| 2026-05-04 12:26 | 11.48017 | 40.91319 | 37768 ft | 487 kts | 333° |
| 2026-05-04 12:26 | 11.54079 | 40.88224 | 37763 ft | 487 kts | 333° |
| 2026-05-04 12:27 | 11.60101 | 40.85148 | 37762 ft | 488 kts | 333° |
| 2026-05-04 12:27 | 11.66170 | 40.82045 | 37764 ft | 488 kts | 333° |
| 2026-05-04 12:28 | 11.72237 | 40.78943 | 37761 ft | 488 kts | 333° |
| 2026-05-04 12:28 | 11.78307 | 40.75838 | 37762 ft | 488 kts | 333° |
| 2026-05-04 12:29 | 11.84338 | 40.72750 | 37774 ft | 488 kts | 333° |
| 2026-05-04 12:29 | 11.90417 | 40.69637 | 37769 ft | 489 kts | 333° |
| 2026-05-04 12:30 | 11.96493 | 40.66524 | 37765 ft | 489 kts | 333° |
| 2026-05-04 12:30 | 12.02570 | 40.63409 | 37774 ft | 488 kts | 333° |
| 2026-05-04 12:31 | 12.08604 | 40.60314 | 37767 ft | 489 kts | 333° |
| 2026-05-04 12:31 | 12.14677 | 40.57197 | 37767 ft | 488 kts | 333° |
| 2026-05-04 12:32 | 12.23784 | 40.52521 | 37764 ft | 488 kts | 333° |
| 2026-05-04 12:33 | 12.29818 | 40.49420 | 37770 ft | 488 kts | 333° |
| 2026-05-04 12:33 | 12.35892 | 40.46296 | 37765 ft | 489 kts | 332° |
| 2026-05-04 12:34 | 12.41976 | 40.43166 | 37742 ft | 490 kts | 332° |
| 2026-05-04 12:34 | 12.47900 | 40.39741 | 37760 ft | 489 kts | 324° |
| 2026-05-04 12:35 | 12.53377 | 40.35698 | 37745 ft | 489 kts | 323° |
| 2026-05-04 12:35 | 12.58878 | 40.31599 | 37766 ft | 489 kts | 323° |
| 2026-05-04 12:36 | 12.64403 | 40.27518 | 37779 ft | 490 kts | 323° |
| 2026-05-04 12:36 | 12.69951 | 40.23443 | 37758 ft | 491 kts | 323° |
| 2026-05-04 12:37 | 12.75502 | 40.19368 | 37800 ft | 491 kts | 323° |
| 2026-05-04 12:37 | 12.81023 | 40.15314 | 37804 ft | 491 kts | 323° |
| 2026-05-04 12:38 | 12.86580 | 40.11230 | 37821 ft | 492 kts | 323° |
| 2026-05-04 12:38 | 12.92138 | 40.07140 | 37821 ft | 492 kts | 323° |
| 2026-05-04 12:39 | 12.97699 | 40.03046 | 37824 ft | 492 kts | 323° |
| 2026-05-04 12:39 | 13.03219 | 39.98982 | 37844 ft | 492 kts | 323° |
| 2026-05-04 12:40 | 13.08780 | 39.94885 | 37844 ft | 492 kts | 323° |
| 2026-05-04 12:40 | 13.14341 | 39.90784 | 37901 ft | 492 kts | 323° |
| 2026-05-04 12:41 | 13.19897 | 39.86684 | 37904 ft | 492 kts | 323° |
| 2026-05-04 12:41 | 13.25416 | 39.82611 | 37931 ft | 492 kts | 323° |
| 2026-05-04 12:42 | 13.30971 | 39.78509 | 37910 ft | 492 kts | 322° |
| 2026-05-04 12:42 | 13.36527 | 39.74402 | 37961 ft | 492 kts | 323° |
| 2026-05-04 12:43 | 13.42076 | 39.70298 | 37966 ft | 491 kts | 323° |
| 2026-05-04 12:43 | 13.47618 | 39.66198 | 37966 ft | 491 kts | 322° |
| 2026-05-04 12:44 | 13.53118 | 39.62127 | 37978 ft | 490 kts | 322° |
| 2026-05-04 12:44 | 13.58655 | 39.58026 | 38005 ft | 491 kts | 322° |
| 2026-05-04 12:45 | 13.64192 | 39.53921 | 37992 ft | 490 kts | 322° |
| 2026-05-04 12:45 | 13.69718 | 39.49822 | 37993 ft | 490 kts | 322° |
| 2026-05-04 12:46 | 13.75201 | 39.45754 | 38004 ft | 489 kts | 323° |
| 2026-05-04 12:46 | 13.80713 | 39.41664 | 37995 ft | 488 kts | 322° |
| 2026-05-04 12:47 | 13.86219 | 39.37572 | 37984 ft | 488 kts | 323° |
| 2026-05-04 12:47 | 13.91717 | 39.33484 | 38014 ft | 488 kts | 322° |
| 2026-05-04 12:48 | 13.97181 | 39.29420 | 37985 ft | 488 kts | 322° |
| 2026-05-04 12:48 | 14.02690 | 39.25320 | 38003 ft | 489 kts | 322° |
| 2026-05-04 12:49 | 14.08203 | 39.21214 | 37968 ft | 489 kts | 322° |
| 2026-05-04 12:49 | 14.13727 | 39.17098 | 37964 ft | 490 kts | 322° |
| 2026-05-04 12:50 | 14.19214 | 39.13006 | 37966 ft | 491 kts | 322° |
| 2026-05-04 12:50 | 14.24747 | 39.08878 | 37949 ft | 491 kts | 322° |
| 2026-05-04 12:51 | 14.30277 | 39.04749 | 37936 ft | 491 kts | 322° |
| 2026-05-04 12:51 | 14.35804 | 39.00620 | 37922 ft | 490 kts | 322° |
| 2026-05-04 12:52 | 14.41285 | 38.96522 | 37915 ft | 490 kts | 322° |
| 2026-05-04 12:52 | 14.46830 | 38.92461 | 37899 ft | 489 kts | 328° |
| 2026-05-04 12:52 | 14.49910 | 38.90972 | 37896 ft | 491 kts | 340° |
| 2026-05-04 12:53 | 14.53213 | 38.90091 | 37919 ft | 492 kts | 349° |
| 2026-05-04 12:53 | 14.60049 | 38.89853 | 37906 ft | 494 kts | 0° |
| 2026-05-04 12:54 | 14.66928 | 38.89971 | 37907 ft | 500 kts | 359° |
| 2026-05-04 12:54 | 14.73895 | 38.90033 | 37907 ft | 501 kts | 359° |
| 2026-05-04 12:55 | 14.80874 | 38.90047 | 37912 ft | 502 kts | 359° |
| 2026-05-04 12:55 | 14.87830 | 38.90050 | 37931 ft | 497 kts | 359° |
| 2026-05-04 12:56 | 14.94678 | 38.90057 | 37930 ft | 495 kts | 359° |
| 2026-05-04 12:56 | 15.01553 | 38.90065 | 37943 ft | 494 kts | 359° |
| 2026-05-04 12:57 | 15.08423 | 38.90074 | 37941 ft | 494 kts | 359° |
| 2026-05-04 12:57 | 15.15301 | 38.90083 | 37949 ft | 495 kts | 358° |
| 2026-05-04 12:58 | 15.22152 | 38.90092 | 37960 ft | 496 kts | 359° |
| 2026-05-04 12:58 | 15.29067 | 38.90102 | 37957 ft | 498 kts | 359° |
| 2026-05-04 12:59 | 15.36001 | 38.90288 | 37943 ft | 499 kts | 1° |
| 2026-05-04 12:59 | 15.41766 | 38.90531 | 37946 ft | 499 kts | 1° |
| 2026-05-04 13:00 | 15.49835 | 38.90859 | 37942 ft | 499 kts | 0° |
| 2026-05-04 13:00 | 15.56777 | 38.91115 | 37914 ft | 499 kts | 0° |
| 2026-05-04 13:01 | 15.62538 | 38.91318 | 37922 ft | 498 kts | 1° |
| 2026-05-04 13:01 | 15.69455 | 38.91563 | 37922 ft | 497 kts | 0° |
| 2026-05-04 13:02 | 15.77490 | 38.91849 | 37894 ft | 497 kts | 0° |
| 2026-05-04 13:02 | 15.84393 | 38.92095 | 37890 ft | 496 kts | 0° |
| 2026-05-04 13:03 | 15.90129 | 38.92301 | 37874 ft | 496 kts | 0° |
| 2026-05-04 13:03 | 15.97027 | 38.92548 | 37873 ft | 496 kts | 0° |
| 2026-05-04 13:04 | 16.03928 | 38.92795 | 37868 ft | 496 kts | 0° |
| 2026-05-04 13:04 | 16.10824 | 38.93042 | 37852 ft | 496 kts | 0° |
| 2026-05-04 13:05 | 16.17678 | 38.93287 | 37853 ft | 496 kts | 0° |
| 2026-05-04 13:05 | 16.24579 | 38.93535 | 37850 ft | 496 kts | 360° |
| 2026-05-04 13:06 | 16.31481 | 38.93782 | 37840 ft | 496 kts | 360° |
| 2026-05-04 13:06 | 16.38383 | 38.94030 | 37823 ft | 496 kts | 360° |
| 2026-05-04 13:07 | 16.45239 | 38.94277 | 37818 ft | 496 kts | 0° |
| 2026-05-04 13:07 | 16.52138 | 38.94525 | 37820 ft | 496 kts | 360° |
| 2026-05-04 13:08 | 16.59032 | 38.94773 | 37817 ft | 496 kts | 360° |
| 2026-05-04 13:08 | 16.65921 | 38.95021 | 37818 ft | 495 kts | 360° |
| 2026-05-04 13:09 | 16.72762 | 38.95268 | 37821 ft | 495 kts | 360° |
| 2026-05-04 13:09 | 16.79640 | 38.95516 | 37819 ft | 494 kts | 360° |
| 2026-05-04 13:10 | 16.86511 | 38.95764 | 37806 ft | 494 kts | 360° |
| 2026-05-04 13:10 | 16.93369 | 38.96012 | 37812 ft | 493 kts | 360° |
| 2026-05-04 13:11 | 17.00178 | 38.96258 | 37814 ft | 493 kts | 360° |
| 2026-05-04 13:11 | 17.07029 | 38.96506 | 37809 ft | 493 kts | 360° |
| 2026-05-04 13:12 | 17.13876 | 38.96754 | 37810 ft | 492 kts | 360° |
| 2026-05-04 13:12 | 17.20726 | 38.97002 | 37808 ft | 493 kts | 360° |
| 2026-05-04 13:13 | 17.27533 | 38.97249 | 37815 ft | 493 kts | 359° |
| 2026-05-04 13:13 | 17.34387 | 38.97498 | 37805 ft | 493 kts | 359° |
| 2026-05-04 13:14 | 17.41242 | 38.97747 | 37801 ft | 493 kts | 359° |
| 2026-05-04 13:14 | 17.48095 | 38.97996 | 37802 ft | 492 kts | 359° |
| 2026-05-04 13:15 | 17.54895 | 38.98243 | 37814 ft | 492 kts | 359° |
| 2026-05-04 13:15 | 17.61740 | 38.98491 | 37801 ft | 492 kts | 359° |
| 2026-05-04 13:16 | 17.68581 | 38.98740 | 37803 ft | 491 kts | 359° |
| 2026-05-04 13:16 | 17.75411 | 38.98989 | 37804 ft | 491 kts | 359° |
| 2026-05-04 13:17 | 17.82186 | 38.99236 | 37810 ft | 490 kts | 359° |
| 2026-05-04 13:17 | 17.89003 | 38.99484 | 37801 ft | 490 kts | 359° |
| 2026-05-04 13:18 | 17.95808 | 38.99733 | 37808 ft | 489 kts | 359° |
| 2026-05-04 13:18 | 18.02606 | 38.99981 | 37812 ft | 489 kts | 359° |
| 2026-05-04 13:19 | 18.09354 | 39.00228 | 37809 ft | 488 kts | 359° |
| 2026-05-04 13:19 | 18.16142 | 39.00476 | 37801 ft | 488 kts | 359° |
| 2026-05-04 13:20 | 18.22929 | 39.00796 | 37804 ft | 488 kts | 0° |
| 2026-05-04 13:20 | 18.29714 | 39.01191 | 37811 ft | 488 kts | 0° |
| 2026-05-04 13:21 | 18.36452 | 39.01580 | 37825 ft | 488 kts | 360° |
| 2026-05-04 13:21 | 18.43235 | 39.01958 | 37812 ft | 488 kts | 360° |
| 2026-05-04 13:22 | 18.50022 | 39.02332 | 37809 ft | 488 kts | 360° |
| 2026-05-04 13:22 | 18.56806 | 39.02706 | 37815 ft | 488 kts | 360° |
| 2026-05-04 13:23 | 18.63549 | 39.03078 | 37817 ft | 488 kts | 359° |
| 2026-05-04 13:23 | 18.70335 | 39.03454 | 37806 ft | 488 kts | 359° |
| 2026-05-04 13:24 | 18.77123 | 39.03830 | 37818 ft | 488 kts | 359° |
| 2026-05-04 13:24 | 18.83911 | 39.04206 | 37810 ft | 488 kts | 359° |
| 2026-05-04 13:25 | 18.94046 | 39.04769 | 37813 ft | 488 kts | 359° |
| 2026-05-04 13:25 | 19.00832 | 39.05145 | 37804 ft | 488 kts | 359° |
| 2026-05-04 13:26 | 19.07616 | 39.05522 | 37818 ft | 488 kts | 359° |
| 2026-05-04 13:26 | 19.14342 | 39.05153 | 37814 ft | 481 kts | 347° |
| 2026-05-04 13:27 | 19.20779 | 39.03578 | 37818 ft | 477 kts | 341° |
| 2026-05-04 13:27 | 19.27178 | 39.01701 | 37816 ft | 477 kts | 340° |
| 2026-05-04 13:28 | 19.33589 | 38.99834 | 37801 ft | 478 kts | 341° |
| 2026-05-04 13:28 | 19.40011 | 38.97992 | 37814 ft | 478 kts | 341° |
| 2026-05-04 13:29 | 19.46403 | 38.96169 | 37814 ft | 479 kts | 340° |
| 2026-05-04 13:29 | 19.52846 | 38.94330 | 37815 ft | 480 kts | 340° |
| 2026-05-04 13:30 | 19.59294 | 38.92488 | 37815 ft | 480 kts | 340° |
| 2026-05-04 13:30 | 19.65749 | 38.90641 | 37817 ft | 481 kts | 340° |
| 2026-05-04 13:31 | 19.72167 | 38.88803 | 37819 ft | 481 kts | 340° |
| 2026-05-04 13:31 | 19.78634 | 38.86949 | 37816 ft | 482 kts | 340° |
| 2026-05-04 13:32 | 19.85104 | 38.85093 | 37819 ft | 482 kts | 340° |
| 2026-05-04 13:32 | 19.91581 | 38.83234 | 37817 ft | 482 kts | 340° |
| 2026-05-04 13:33 | 19.98014 | 38.81386 | 37829 ft | 482 kts | 340° |
| 2026-05-04 13:33 | 20.04497 | 38.79521 | 37817 ft | 483 kts | 340° |
| 2026-05-04 13:34 | 20.10978 | 38.77656 | 37815 ft | 483 kts | 340° |
| 2026-05-04 13:34 | 20.17460 | 38.75789 | 37816 ft | 482 kts | 340° |
| 2026-05-04 13:35 | 20.27134 | 38.72999 | 37832 ft | 482 kts | 339° |
| 2026-05-04 13:36 | 20.33614 | 38.71128 | 37818 ft | 482 kts | 339° |
| 2026-05-04 13:36 | 20.40092 | 38.69256 | 37820 ft | 482 kts | 339° |
| 2026-05-04 13:37 | 20.46564 | 38.67384 | 37816 ft | 482 kts | 339° |
| 2026-05-04 13:37 | 20.52995 | 38.65523 | 37825 ft | 482 kts | 339° |
| 2026-05-04 13:38 | 20.59465 | 38.63649 | 37820 ft | 482 kts | 339° |
| 2026-05-04 13:38 | 20.65930 | 38.61774 | 37818 ft | 481 kts | 339° |
| 2026-05-04 13:39 | 20.72381 | 38.59901 | 37817 ft | 480 kts | 339° |
| 2026-05-04 13:39 | 20.78786 | 38.58040 | 37816 ft | 480 kts | 339° |
| 2026-05-04 13:40 | 20.85391 | 38.57064 | 37829 ft | 493 kts | 2° |
| 2026-05-04 13:40 | 20.88763 | 38.57920 | 37812 ft | 505 kts | 18° |
| 2026-05-04 13:40 | 20.91876 | 38.59691 | 37818 ft | 509 kts | 28° |
| 2026-05-04 13:41 | 20.97856 | 38.63790 | 37819 ft | 512 kts | 28° |
| 2026-05-04 13:41 | 21.03858 | 38.67830 | 37813 ft | 514 kts | 28° |
| 2026-05-04 13:42 | 21.13035 | 38.73874 | 37820 ft | 518 kts | 27° |
| 2026-05-04 13:42 | 21.19191 | 38.77915 | 37814 ft | 520 kts | 27° |
| 2026-05-04 13:43 | 21.25355 | 38.81973 | 37814 ft | 520 kts | 27° |
| 2026-05-04 13:43 | 21.31473 | 38.86007 | 37822 ft | 520 kts | 27° |
| 2026-05-04 13:44 | 21.37630 | 38.90071 | 37804 ft | 519 kts | 27° |
| 2026-05-04 13:44 | 21.43774 | 38.94130 | 37814 ft | 518 kts | 27° |
| 2026-05-04 13:45 | 21.49904 | 38.98184 | 37826 ft | 518 kts | 27° |
| 2026-05-04 13:45 | 21.55997 | 39.02218 | 37804 ft | 518 kts | 27° |
| 2026-05-04 13:46 | 21.62126 | 39.06279 | 37805 ft | 517 kts | 27° |
| 2026-05-04 13:46 | 21.65249 | 39.08129 | 37789 ft | 507 kts | 15° |
| 2026-05-04 13:46 | 21.68608 | 39.09036 | 37804 ft | 492 kts | 358° |
| 2026-05-04 13:47 | 21.71967 | 39.08887 | 37818 ft | 479 kts | 343° |
| 2026-05-04 13:47 | 21.75166 | 39.07994 | 37814 ft | 473 kts | 333° |
| 2026-05-04 13:47 | 21.78141 | 39.06543 | 37810 ft | 465 kts | 321° |
| 2026-05-04 13:47 | 21.80650 | 39.04506 | 37837 ft | 456 kts | 314° |
| 2026-05-04 13:48 | 21.85595 | 39.00145 | 37828 ft | 462 kts | 314° |
| 2026-05-04 13:48 | 21.90612 | 38.95792 | 37817 ft | 460 kts | 315° |
| 2026-05-04 13:49 | 21.95584 | 38.91541 | 37816 ft | 454 kts | 315° |
| 2026-05-04 13:49 | 22.00504 | 38.87340 | 37829 ft | 454 kts | 315° |
| 2026-05-04 13:50 | 22.05451 | 38.83111 | 37843 ft | 454 kts | 315° |
| 2026-05-04 13:50 | 22.10394 | 38.78881 | 37811 ft | 454 kts | 315° |
| 2026-05-04 13:51 | 22.15335 | 38.74649 | 37816 ft | 453 kts | 315° |
| 2026-05-04 13:51 | 22.20240 | 38.70443 | 37836 ft | 453 kts | 315° |
| 2026-05-04 13:52 | 22.27649 | 38.64084 | 37826 ft | 454 kts | 314° |
| 2026-05-04 13:53 | 22.32587 | 38.59840 | 37823 ft | 453 kts | 314° |
| 2026-05-04 13:53 | 22.37521 | 38.55596 | 37824 ft | 453 kts | 314° |
| 2026-05-04 13:54 | 22.44881 | 38.49257 | 37826 ft | 453 kts | 314° |
| 2026-05-04 13:55 | 22.52275 | 38.42882 | 37827 ft | 453 kts | 314° |
| 2026-05-04 13:55 | 22.59626 | 38.36532 | 37834 ft | 453 kts | 314° |
| 2026-05-04 13:56 | 22.64547 | 38.32275 | 37826 ft | 453 kts | 314° |
| 2026-05-04 13:57 | 22.71928 | 38.25883 | 37851 ft | 453 kts | 314° |
| 2026-05-04 13:58 | 22.81740 | 38.17370 | 37844 ft | 453 kts | 314° |
| 2026-05-04 13:58 | 22.89115 | 38.10962 | 37831 ft | 452 kts | 314° |
| 2026-05-04 13:59 | 22.94017 | 38.06697 | 37834 ft | 452 kts | 314° |
| 2026-05-04 14:00 | 23.01325 | 38.00331 | 37832 ft | 451 kts | 314° |
| 2026-05-04 14:00 | 23.08651 | 37.93941 | 37857 ft | 451 kts | 313° |
| 2026-05-04 14:01 | 23.13534 | 37.89675 | 37845 ft | 450 kts | 313° |
| 2026-05-04 14:02 | 23.20850 | 37.83277 | 37837 ft | 450 kts | 313° |
| 2026-05-04 14:02 | 23.25686 | 37.79043 | 37835 ft | 449 kts | 313° |
| 2026-05-04 14:03 | 23.30548 | 37.74781 | 37839 ft | 449 kts | 313° |
| 2026-05-04 14:03 | 23.35406 | 37.70520 | 37851 ft | 449 kts | 313° |
| 2026-05-04 14:04 | 23.42656 | 37.64153 | 37849 ft | 449 kts | 313° |
| 2026-05-04 14:04 | 23.47516 | 37.59877 | 37848 ft | 449 kts | 313° |
| 2026-05-04 14:05 | 23.54795 | 37.53465 | 37845 ft | 449 kts | 313° |
| 2026-05-04 14:06 | 23.59644 | 37.49188 | 37850 ft | 448 kts | 313° |
| 2026-05-04 14:06 | 23.64459 | 37.44937 | 37854 ft | 448 kts | 313° |
| 2026-05-04 14:07 | 23.69302 | 37.40657 | 37849 ft | 448 kts | 313° |
| 2026-05-04 14:07 | 23.74139 | 37.36379 | 37887 ft | 447 kts | 312° |
| 2026-05-04 14:08 | 23.78975 | 37.32097 | 37861 ft | 447 kts | 312° |
| 2026-05-04 14:08 | 23.83773 | 37.27843 | 37856 ft | 447 kts | 312° |
| 2026-05-04 14:09 | 23.91010 | 37.21422 | 37871 ft | 447 kts | 312° |
| 2026-05-04 14:10 | 23.98241 | 37.14995 | 37865 ft | 446 kts | 312° |
| 2026-05-04 14:10 | 24.03022 | 37.10740 | 37869 ft | 446 kts | 312° |
| 2026-05-04 14:11 | 24.07828 | 37.06459 | 37900 ft | 446 kts | 312° |
| 2026-05-04 14:11 | 24.15047 | 37.00020 | 37873 ft | 446 kts | 312° |
| 2026-05-04 14:12 | 24.19856 | 36.95726 | 37875 ft | 446 kts | 312° |
| 2026-05-04 14:13 | 24.27040 | 36.89303 | 37882 ft | 446 kts | 311° |
| 2026-05-04 14:13 | 24.31846 | 36.85000 | 37882 ft | 446 kts | 311° |
| 2026-05-04 14:14 | 24.36651 | 36.80694 | 37879 ft | 446 kts | 311° |
| 2026-05-04 14:14 | 24.43821 | 36.74260 | 37915 ft | 446 kts | 311° |
| 2026-05-04 14:15 | 24.53429 | 36.65622 | 37894 ft | 446 kts | 311° |
| 2026-05-04 14:16 | 24.60304 | 36.58887 | 37888 ft | 430 kts | 299° |
| 2026-05-04 14:17 | 24.63383 | 36.53423 | 37902 ft | 421 kts | 288° |
| 2026-05-04 14:17 | 24.64417 | 36.50436 | 37905 ft | 418 kts | 283° |
| 2026-05-04 14:18 | 24.67175 | 36.41306 | 37902 ft | 421 kts | 283° |
| 2026-05-04 14:19 | 24.70926 | 36.29176 | 37899 ft | 419 kts | 283° |
| 2026-05-04 14:19 | 24.72800 | 36.23119 | 37907 ft | 418 kts | 283° |
| 2026-05-04 14:20 | 24.74663 | 36.17079 | 37901 ft | 416 kts | 283° |
| 2026-05-04 14:20 | 24.76517 | 36.11054 | 37901 ft | 415 kts | 283° |
| 2026-05-04 14:21 | 24.79273 | 36.02083 | 37904 ft | 414 kts | 283° |
| 2026-05-04 14:21 | 24.81112 | 35.96085 | 37903 ft | 413 kts | 282° |
| 2026-05-04 14:22 | 24.82947 | 35.90088 | 37904 ft | 413 kts | 282° |
| 2026-05-04 14:22 | 24.84780 | 35.84089 | 37910 ft | 414 kts | 282° |
| 2026-05-04 14:23 | 24.87519 | 35.75107 | 37920 ft | 415 kts | 282° |
| 2026-05-04 14:24 | 24.89357 | 35.69066 | 37911 ft | 417 kts | 282° |
| 2026-05-04 14:24 | 24.91203 | 35.62989 | 37913 ft | 419 kts | 282° |
| 2026-05-04 14:25 | 24.93055 | 35.56885 | 37911 ft | 421 kts | 282° |
| 2026-05-04 14:25 | 24.95825 | 35.47737 | 37930 ft | 422 kts | 283° |
| 2026-05-04 14:26 | 24.97682 | 35.41592 | 37917 ft | 423 kts | 283° |
| 2026-05-04 14:26 | 24.99536 | 35.35447 | 37916 ft | 422 kts | 283° |
| 2026-05-04 14:27 | 25.01384 | 35.29313 | 37919 ft | 421 kts | 282° |
| 2026-05-04 14:27 | 25.03212 | 35.23233 | 37942 ft | 420 kts | 283° |
| 2026-05-04 14:28 | 25.05183 | 35.17161 | 37906 ft | 425 kts | 290° |
| 2026-05-04 14:28 | 25.08304 | 35.11560 | 37932 ft | 433 kts | 299° |
| 2026-05-04 14:29 | 25.16795 | 35.01918 | 37942 ft | 442 kts | 307° |
| 2026-05-04 14:30 | 25.21198 | 34.97205 | 37943 ft | 440 kts | 307° |
| 2026-05-04 14:31 | 25.27736 | 34.90111 | 37932 ft | 438 kts | 307° |
| 2026-05-04 14:32 | 25.36398 | 34.80666 | 37934 ft | 436 kts | 307° |
| 2026-05-04 14:32 | 25.40687 | 34.75984 | 37935 ft | 436 kts | 307° |
| 2026-05-04 14:33 | 25.44999 | 34.71271 | 37947 ft | 436 kts | 307° |
| 2026-05-04 14:33 | 25.49310 | 34.66554 | 37960 ft | 436 kts | 307° |
| 2026-05-04 14:34 | 25.53622 | 34.61831 | 37970 ft | 436 kts | 307° |
| 2026-05-04 14:34 | 25.57928 | 34.57101 | 37969 ft | 435 kts | 306° |
| 2026-05-04 14:35 | 25.61908 | 34.52083 | 38129 ft | 435 kts | 302° |
| 2026-05-04 14:35 | 25.63837 | 34.49563 | 38409 ft | 434 kts | 302° |
| 2026-05-04 14:35 | 25.65788 | 34.47018 | 38726 ft | 432 kts | 302° |
| 2026-05-04 14:35 | 25.67732 | 34.44486 | 38996 ft | 431 kts | 302° |
| 2026-05-04 14:36 | 25.69674 | 34.41959 | 39172 ft | 431 kts | 302° |
| 2026-05-04 14:36 | 25.71621 | 34.39425 | 39345 ft | 431 kts | 302° |
| 2026-05-04 14:36 | 25.73567 | 34.36894 | 39536 ft | 431 kts | 302° |
| 2026-05-04 14:36 | 25.75511 | 34.34365 | 39716 ft | 431 kts | 302° |
| 2026-05-04 14:37 | 25.77458 | 34.31830 | 39851 ft | 432 kts | 302° |
| 2026-05-04 14:37 | 25.81346 | 34.26763 | 39949 ft | 435 kts | 302° |
| 2026-05-04 14:38 | 25.85257 | 34.21665 | 39944 ft | 432 kts | 302° |
| 2026-05-04 14:38 | 25.89140 | 34.16597 | 39956 ft | 429 kts | 302° |
| 2026-05-04 14:39 | 25.92999 | 34.11553 | 39955 ft | 427 kts | 302° |
| 2026-05-04 14:39 | 25.96813 | 34.06561 | 39945 ft | 426 kts | 302° |
| 2026-05-04 14:40 | 26.02549 | 33.99038 | 39954 ft | 426 kts | 302° |
| 2026-05-04 14:40 | 26.06384 | 33.93998 | 39990 ft | 427 kts | 302° |
| 2026-05-04 14:41 | 26.10230 | 33.88941 | 39962 ft | 428 kts | 302° |
| 2026-05-04 14:42 | 26.17900 | 33.78844 | 39964 ft | 429 kts | 301° |
| 2026-05-04 14:42 | 26.21750 | 33.73764 | 39963 ft | 429 kts | 301° |
| 2026-05-04 14:43 | 26.25595 | 33.68683 | 39969 ft | 429 kts | 301° |
| 2026-05-04 14:43 | 26.29438 | 33.63603 | 39974 ft | 429 kts | 301° |
| 2026-05-04 14:44 | 26.33251 | 33.58562 | 39968 ft | 428 kts | 301° |
| 2026-05-04 14:44 | 26.37073 | 33.53496 | 39980 ft | 426 kts | 301° |
| 2026-05-04 14:45 | 26.40883 | 33.48439 | 39969 ft | 426 kts | 301° |
| 2026-05-04 14:45 | 26.44692 | 33.43382 | 39978 ft | 426 kts | 301° |
| 2026-05-04 14:46 | 26.48478 | 33.38346 | 39944 ft | 426 kts | 301° |
| 2026-05-04 14:46 | 26.52274 | 33.33299 | 39985 ft | 425 kts | 301° |
| 2026-05-04 14:47 | 26.56069 | 33.28235 | 39983 ft | 426 kts | 301° |
| 2026-05-04 14:47 | 26.59872 | 33.23157 | 39981 ft | 427 kts | 301° |
| 2026-05-04 14:48 | 26.63656 | 33.18101 | 39987 ft | 427 kts | 301° |
| 2026-05-04 14:48 | 26.67471 | 33.12998 | 40002 ft | 428 kts | 301° |
| 2026-05-04 14:49 | 26.71290 | 33.07884 | 39989 ft | 429 kts | 301° |
| 2026-05-04 14:49 | 26.75108 | 33.02766 | 39987 ft | 428 kts | 301° |
| 2026-05-04 14:50 | 26.78897 | 32.97683 | 39984 ft | 428 kts | 301° |
| 2026-05-04 14:50 | 26.82698 | 32.92575 | 39983 ft | 427 kts | 301° |
| 2026-05-04 14:51 | 26.86490 | 32.87473 | 40007 ft | 426 kts | 301° |
| 2026-05-04 14:51 | 26.90272 | 32.82379 | 39997 ft | 425 kts | 301° |
| 2026-05-04 14:52 | 26.94016 | 32.77330 | 39988 ft | 424 kts | 301° |
| 2026-05-04 14:52 | 26.97778 | 32.72252 | 39993 ft | 422 kts | 301° |
| 2026-05-04 14:53 | 27.01523 | 32.67190 | 39996 ft | 421 kts | 301° |
| 2026-05-04 14:53 | 27.05260 | 32.62132 | 39992 ft | 421 kts | 301° |
| 2026-05-04 14:54 | 27.08989 | 32.57080 | 40038 ft | 421 kts | 301° |
| 2026-05-04 14:54 | 27.12697 | 32.52049 | 40010 ft | 421 kts | 301° |
| 2026-05-04 14:55 | 27.16426 | 32.46987 | 40011 ft | 420 kts | 301° |
| 2026-05-04 14:55 | 27.20146 | 32.41930 | 40008 ft | 419 kts | 301° |
| 2026-05-04 14:56 | 27.23856 | 32.36879 | 40020 ft | 419 kts | 301° |
| 2026-05-04 14:56 | 27.27535 | 32.31866 | 40025 ft | 418 kts | 301° |
| 2026-05-04 14:57 | 27.31215 | 32.26809 | 40027 ft | 417 kts | 300° |
| 2026-05-04 14:57 | 27.34760 | 32.21657 | 40031 ft | 416 kts | 299° |
| 2026-05-04 14:58 | 27.38274 | 32.16480 | 40042 ft | 417 kts | 299° |
| 2026-05-04 14:58 | 27.41778 | 32.11334 | 40044 ft | 417 kts | 299° |
| 2026-05-04 14:59 | 27.45320 | 32.06149 | 40063 ft | 418 kts | 300° |
| 2026-05-04 15:00 | 27.50648 | 31.98345 | 40073 ft | 420 kts | 300° |
| 2026-05-04 15:00 | 27.54204 | 31.93131 | 40086 ft | 420 kts | 300° |
| 2026-05-04 15:01 | 27.59516 | 31.85331 | 40093 ft | 420 kts | 300° |
| 2026-05-04 15:01 | 27.63069 | 31.80104 | 40092 ft | 420 kts | 300° |
| 2026-05-04 15:02 | 27.66622 | 31.74872 | 40102 ft | 420 kts | 300° |
| 2026-05-04 15:02 | 27.70146 | 31.69676 | 40117 ft | 420 kts | 300° |
| 2026-05-04 15:03 | 27.73688 | 31.64447 | 40111 ft | 419 kts | 300° |
| 2026-05-04 15:03 | 27.77222 | 31.59223 | 40114 ft | 418 kts | 300° |
| 2026-05-04 15:04 | 27.80752 | 31.54000 | 40119 ft | 418 kts | 300° |
| 2026-05-04 15:04 | 27.84275 | 31.48780 | 40134 ft | 418 kts | 300° |
| 2026-05-04 15:05 | 27.87793 | 31.43561 | 40134 ft | 417 kts | 300° |
| 2026-05-04 15:05 | 27.91286 | 31.38372 | 40139 ft | 417 kts | 300° |
| 2026-05-04 15:06 | 27.94798 | 31.33150 | 40131 ft | 417 kts | 300° |
| 2026-05-04 15:07 | 28.00057 | 31.25316 | 40128 ft | 417 kts | 300° |
| 2026-05-04 15:07 | 28.03537 | 31.20124 | 40136 ft | 417 kts | 300° |
| 2026-05-04 15:08 | 28.07033 | 31.14891 | 40121 ft | 416 kts | 299° |
| 2026-05-04 15:08 | 28.10274 | 31.09507 | 40120 ft | 413 kts | 297° |
| 2026-05-04 15:09 | 28.13455 | 31.04089 | 40120 ft | 413 kts | 297° |
| 2026-05-04 15:09 | 28.16637 | 30.98669 | 40118 ft | 413 kts | 297° |
| 2026-05-04 15:10 | 28.21399 | 30.90573 | 40120 ft | 413 kts | 297° |
| 2026-05-04 15:11 | 28.26184 | 30.82432 | 40118 ft | 414 kts | 297° |
| 2026-05-04 15:11 | 28.29373 | 30.76999 | 40121 ft | 414 kts | 297° |
| 2026-05-04 15:12 | 28.32542 | 30.71592 | 40120 ft | 415 kts | 297° |
| 2026-05-04 15:12 | 28.35735 | 30.66138 | 40116 ft | 415 kts | 297° |
| 2026-05-04 15:13 | 28.38925 | 30.60682 | 40108 ft | 414 kts | 297° |
| 2026-05-04 15:13 | 28.42109 | 30.55228 | 40108 ft | 414 kts | 297° |
| 2026-05-04 15:14 | 28.45286 | 30.49781 | 40107 ft | 413 kts | 297° |
| 2026-05-04 15:14 | 28.48437 | 30.44371 | 40105 ft | 413 kts | 297° |
| 2026-05-04 15:15 | 28.51606 | 30.38922 | 40121 ft | 413 kts | 297° |
| 2026-05-04 15:15 | 28.54773 | 30.33469 | 40106 ft | 413 kts | 297° |
| 2026-05-04 15:16 | 28.59519 | 30.25285 | 40109 ft | 413 kts | 297° |
| 2026-05-04 15:17 | 28.64236 | 30.17137 | 40111 ft | 413 kts | 297° |
| 2026-05-04 15:17 | 28.68972 | 30.08938 | 40102 ft | 413 kts | 297° |
| 2026-05-04 15:18 | 28.72129 | 30.03465 | 40097 ft | 413 kts | 297° |
| 2026-05-04 15:19 | 28.76840 | 29.95283 | 40097 ft | 414 kts | 297° |
| 2026-05-04 15:19 | 28.81570 | 29.87052 | 40087 ft | 413 kts | 297° |
| 2026-05-04 15:20 | 28.84718 | 29.81567 | 40089 ft | 413 kts | 297° |
| 2026-05-04 15:20 | 28.87837 | 29.76123 | 40087 ft | 412 kts | 297° |
| 2026-05-04 15:21 | 28.90972 | 29.70645 | 40081 ft | 412 kts | 297° |
| 2026-05-04 15:22 | 28.95662 | 29.62435 | 40087 ft | 411 kts | 297° |
| 2026-05-04 15:22 | 29.00322 | 29.54263 | 40085 ft | 411 kts | 297° |
| 2026-05-04 15:23 | 29.03439 | 29.48785 | 40089 ft | 411 kts | 297° |
| 2026-05-04 15:23 | 29.06554 | 29.43305 | 40080 ft | 411 kts | 297° |
| 2026-05-04 15:24 | 29.13398 | 29.32776 | 40085 ft | 419 kts | 307° |
| 2026-05-04 15:25 | 29.17730 | 29.28308 | 40115 ft | 426 kts | 315° |
| 2026-05-04 15:26 | 29.24879 | 29.22208 | 40086 ft | 427 kts | 316° |
| 2026-05-04 15:26 | 29.31986 | 29.16104 | 40083 ft | 425 kts | 315° |
| 2026-05-04 15:27 | 29.39038 | 29.09997 | 40075 ft | 423 kts | 315° |
| 2026-05-04 15:28 | 29.46022 | 29.03925 | 40081 ft | 421 kts | 315° |
| 2026-05-04 15:29 | 29.53012 | 28.97802 | 40087 ft | 422 kts | 315° |
| 2026-05-04 15:30 | 29.69288 | 28.83512 | 40086 ft | 421 kts | 315° |
| 2026-05-04 15:31 | 29.76267 | 28.77366 | 40089 ft | 421 kts | 315° |
| 2026-05-04 15:32 | 29.87888 | 28.67109 | 40097 ft | 423 kts | 315° |
| 2026-05-04 15:34 | 29.99556 | 28.56781 | 40096 ft | 423 kts | 315° |
| 2026-05-04 15:34 | 30.06518 | 28.50604 | 40103 ft | 423 kts | 315° |
| 2026-05-04 15:35 | 30.13507 | 28.44391 | 40107 ft | 423 kts | 315° |
| 2026-05-04 15:36 | 30.20495 | 28.38166 | 40117 ft | 423 kts | 315° |
| 2026-05-04 15:36 | 30.25121 | 28.34040 | 40115 ft | 423 kts | 315° |
| 2026-05-04 15:37 | 30.29773 | 28.29885 | 40115 ft | 423 kts | 315° |
| 2026-05-04 15:37 | 30.34425 | 28.25725 | 40117 ft | 422 kts | 315° |
| 2026-05-04 15:38 | 30.39074 | 28.21563 | 40113 ft | 422 kts | 315° |
| 2026-05-04 15:38 | 30.43688 | 28.17426 | 40142 ft | 422 kts | 315° |
| 2026-05-04 15:39 | 30.48338 | 28.13252 | 40133 ft | 423 kts | 315° |
| 2026-05-04 15:40 | 30.55313 | 28.06983 | 40125 ft | 422 kts | 315° |
| 2026-05-04 15:40 | 30.59952 | 28.02807 | 40127 ft | 422 kts | 315° |
| 2026-05-04 15:41 | 30.64550 | 27.98663 | 40134 ft | 421 kts | 315° |
| 2026-05-04 15:41 | 30.69169 | 27.94493 | 40130 ft | 420 kts | 315° |
| 2026-05-04 15:42 | 30.73781 | 27.90326 | 40132 ft | 420 kts | 315° |
| 2026-05-04 15:42 | 30.77610 | 27.86861 | 40153 ft | 420 kts | 315° |
| 2026-05-04 15:43 | 30.82222 | 27.82682 | 40141 ft | 420 kts | 316° |
| 2026-05-04 15:43 | 30.87584 | 27.77819 | 40145 ft | 420 kts | 315° |
| 2026-05-04 15:44 | 30.91418 | 27.74338 | 40130 ft | 421 kts | 315° |
| 2026-05-04 15:44 | 30.96029 | 27.70145 | 40133 ft | 421 kts | 315° |
| 2026-05-04 15:45 | 31.00642 | 27.65945 | 40149 ft | 421 kts | 315° |
| 2026-05-04 15:45 | 31.05257 | 27.61738 | 40151 ft | 421 kts | 315° |
| 2026-05-04 15:46 | 31.09871 | 27.57520 | 40160 ft | 422 kts | 315° |
| 2026-05-04 15:46 | 31.13979 | 27.52800 | 40155 ft | 415 kts | 306° |
| 2026-05-04 15:47 | 31.17440 | 27.47451 | 40162 ft | 412 kts | 300° |
| 2026-05-04 15:47 | 31.20632 | 27.41888 | 40159 ft | 413 kts | 300° |
| 2026-05-04 15:48 | 31.23838 | 27.36320 | 40156 ft | 413 kts | 300° |
| 2026-05-04 15:48 | 31.28654 | 27.27998 | 40159 ft | 414 kts | 300° |
| 2026-05-04 15:49 | 31.32411 | 27.22840 | 40161 ft | 421 kts | 311° |
| 2026-05-04 15:49 | 31.36928 | 27.18421 | 40153 ft | 428 kts | 320° |
| 2026-05-04 15:50 | 31.41946 | 27.14655 | 40156 ft | 428 kts | 321° |
| 2026-05-04 15:50 | 31.46964 | 27.10968 | 40166 ft | 429 kts | 321° |
| 2026-05-04 15:51 | 31.52001 | 27.07233 | 40157 ft | 428 kts | 321° |
| 2026-05-04 15:51 | 31.57021 | 27.03478 | 40153 ft | 428 kts | 321° |
| 2026-05-04 15:52 | 31.62032 | 26.99715 | 40146 ft | 427 kts | 321° |
| 2026-05-04 15:52 | 31.67036 | 26.95950 | 40142 ft | 427 kts | 321° |
| 2026-05-04 15:53 | 31.72003 | 26.92208 | 40145 ft | 427 kts | 321° |
| 2026-05-04 15:53 | 31.77005 | 26.88436 | 40143 ft | 427 kts | 321° |
| 2026-05-04 15:54 | 31.82001 | 26.84663 | 40141 ft | 427 kts | 321° |
| 2026-05-04 15:54 | 31.86995 | 26.80888 | 40134 ft | 426 kts | 321° |
| 2026-05-04 15:55 | 31.91982 | 26.77113 | 40138 ft | 426 kts | 321° |
| 2026-05-04 15:55 | 31.96928 | 26.73363 | 40131 ft | 426 kts | 321° |
| 2026-05-04 15:56 | 32.01911 | 26.69581 | 40130 ft | 426 kts | 321° |
| 2026-05-04 15:56 | 32.06896 | 26.65792 | 40142 ft | 427 kts | 321° |
| 2026-05-04 15:57 | 32.11880 | 26.61998 | 40130 ft | 427 kts | 321° |
| 2026-05-04 15:57 | 32.16837 | 26.58221 | 40124 ft | 427 kts | 321° |
| 2026-05-04 15:58 | 32.21818 | 26.54420 | 40122 ft | 426 kts | 322° |
| 2026-05-04 15:58 | 32.26793 | 26.50620 | 40127 ft | 426 kts | 322° |
| 2026-05-04 15:59 | 32.31764 | 26.46816 | 40163 ft | 425 kts | 322° |
| 2026-05-04 15:59 | 32.36738 | 26.43005 | 40135 ft | 426 kts | 322° |
| 2026-05-04 16:00 | 32.41679 | 26.39215 | 40130 ft | 426 kts | 322° |
| 2026-05-04 16:00 | 32.46651 | 26.35396 | 40133 ft | 426 kts | 321° |
| 2026-05-04 16:01 | 32.51621 | 26.31573 | 40131 ft | 426 kts | 321° |
| 2026-05-04 16:01 | 32.56589 | 26.27747 | 40131 ft | 426 kts | 321° |
| 2026-05-04 16:02 | 32.61556 | 26.23915 | 40158 ft | 426 kts | 322° |
| 2026-05-04 16:03 | 32.68980 | 26.18181 | 40134 ft | 427 kts | 322° |
| 2026-05-04 16:03 | 32.73953 | 26.14333 | 40130 ft | 427 kts | 322° |
| 2026-05-04 16:04 | 32.78927 | 26.10479 | 40128 ft | 427 kts | 322° |
| 2026-05-04 16:04 | 32.86353 | 26.04716 | 40128 ft | 427 kts | 322° |
| 2026-05-04 16:05 | 32.91325 | 26.00850 | 40152 ft | 427 kts | 322° |
| 2026-05-04 16:06 | 32.98793 | 25.95033 | 40133 ft | 428 kts | 322° |
| 2026-05-04 16:07 | 33.08720 | 25.87283 | 40129 ft | 428 kts | 322° |
| 2026-05-04 16:08 | 33.18668 | 25.79496 | 40127 ft | 427 kts | 322° |
| 2026-05-04 16:09 | 33.31049 | 25.69774 | 40133 ft | 427 kts | 322° |
| 2026-05-04 16:10 | 33.40967 | 25.61961 | 40127 ft | 427 kts | 322° |
| 2026-05-04 16:11 | 33.50843 | 25.54160 | 40142 ft | 427 kts | 322° |
| 2026-05-04 16:12 | 33.65738 | 25.42353 | 40138 ft | 428 kts | 322° |
| 2026-05-04 16:13 | 33.75651 | 25.34467 | 40134 ft | 429 kts | 322° |
| 2026-05-04 16:14 | 33.85597 | 25.26533 | 40125 ft | 429 kts | 322° |
| 2026-05-04 16:16 | 33.97974 | 25.16627 | 40127 ft | 428 kts | 322° |
| 2026-05-04 16:17 | 34.09869 | 25.05982 | 40132 ft | 426 kts | 319° |
| 2026-05-04 16:18 | 34.19253 | 24.97331 | 40119 ft | 426 kts | 320° |
| 2026-05-04 16:19 | 34.31024 | 24.86474 | 40128 ft | 426 kts | 319° |
| 2026-05-04 16:20 | 34.42798 | 24.75566 | 40132 ft | 427 kts | 320° |
| 2026-05-04 16:22 | 34.54543 | 24.64646 | 40128 ft | 427 kts | 319° |
| 2026-05-04 16:23 | 34.68615 | 24.51510 | 40140 ft | 426 kts | 320° |
| 2026-05-04 16:25 | 34.82697 | 24.38306 | 40128 ft | 426 kts | 320° |
| 2026-05-04 16:26 | 34.99033 | 24.22914 | 40136 ft | 425 kts | 320° |
| 2026-05-04 16:28 | 35.10671 | 24.11900 | 40127 ft | 425 kts | 320° |
| 2026-05-04 16:29 | 35.27005 | 23.96371 | 40128 ft | 427 kts | 320° |
| 2026-05-04 16:31 | 35.38734 | 23.85175 | 40135 ft | 429 kts | 320° |
| 2026-05-04 16:32 | 35.52746 | 23.71738 | 40134 ft | 425 kts | 320° |
| 2026-05-04 16:33 | 35.62055 | 23.62778 | 40136 ft | 425 kts | 320° |
| 2026-05-04 16:34 | 35.69030 | 23.56046 | 40134 ft | 425 kts | 320° |
| 2026-05-04 16:35 | 35.82986 | 23.42531 | 40125 ft | 427 kts | 320° |
| 2026-05-04 16:36 | 35.89998 | 23.35717 | 40128 ft | 428 kts | 320° |
| 2026-05-04 16:37 | 35.96975 | 23.28922 | 40123 ft | 428 kts | 320° |
| 2026-05-04 16:38 | 36.06310 | 23.19805 | 40121 ft | 427 kts | 320° |
| 2026-05-04 16:39 | 36.17923 | 23.08423 | 40116 ft | 427 kts | 320° |
| 2026-05-04 16:40 | 36.27218 | 22.99282 | 40113 ft | 426 kts | 320° |
| 2026-05-04 16:41 | 36.38783 | 22.87867 | 40104 ft | 426 kts | 320° |
| 2026-05-04 16:43 | 36.50369 | 22.76387 | 40087 ft | 426 kts | 320° |
| 2026-05-04 16:43 | 36.57284 | 22.69514 | 40099 ft | 426 kts | 320° |
| 2026-05-04 16:45 | 36.71196 | 22.55636 | 40105 ft | 428 kts | 320° |
| 2026-05-04 16:46 | 36.82777 | 22.44033 | 40085 ft | 428 kts | 320° |
| 2026-05-04 16:47 | 36.92064 | 22.34695 | 40122 ft | 429 kts | 320° |
| 2026-05-04 16:48 | 37.01351 | 22.25326 | 40123 ft | 431 kts | 320° |
| 2026-05-04 16:49 | 37.10694 | 22.15870 | 40130 ft | 432 kts | 320° |
| 2026-05-04 16:50 | 37.19989 | 22.06433 | 40122 ft | 431 kts | 320° |
| 2026-05-04 16:51 | 37.26964 | 21.99331 | 40138 ft | 430 kts | 320° |
| 2026-05-04 16:52 | 37.36237 | 21.89860 | 40122 ft | 428 kts | 320° |
| 2026-05-04 16:53 | 37.43130 | 21.82801 | 40139 ft | 428 kts | 320° |
| 2026-05-04 16:54 | 37.52344 | 21.73338 | 40143 ft | 428 kts | 320° |
| 2026-05-04 16:55 | 37.66188 | 21.59060 | 40132 ft | 431 kts | 320° |
| 2026-05-04 16:56 | 37.77782 | 21.47048 | 40130 ft | 431 kts | 320° |
| 2026-05-04 16:57 | 37.84737 | 21.39819 | 40133 ft | 432 kts | 320° |
| 2026-05-04 16:58 | 37.93973 | 21.30189 | 40130 ft | 431 kts | 320° |
| 2026-05-04 17:00 | 38.07807 | 21.15706 | 40139 ft | 430 kts | 320° |
| 2026-05-04 17:01 | 38.19324 | 21.03592 | 40125 ft | 430 kts | 320° |
| 2026-05-04 17:02 | 38.28503 | 20.93900 | 40123 ft | 430 kts | 320° |
| 2026-05-04 17:03 | 38.35414 | 20.86581 | 40135 ft | 431 kts | 320° |
| 2026-05-04 17:03 | 38.42332 | 20.79236 | 40115 ft | 432 kts | 320° |
| 2026-05-04 17:04 | 38.51529 | 20.69441 | 40126 ft | 432 kts | 320° |
| 2026-05-04 17:05 | 38.60757 | 20.59580 | 40125 ft | 432 kts | 320° |
| 2026-05-04 17:06 | 38.67648 | 20.52194 | 40126 ft | 433 kts | 320° |
| 2026-05-04 17:07 | 38.73784 | 20.45600 | 40115 ft | 432 kts | 320° |
| 2026-05-04 17:07 | 38.79156 | 20.39816 | 40127 ft | 431 kts | 320° |
| 2026-05-04 17:08 | 38.86002 | 20.32426 | 40123 ft | 430 kts | 320° |
| 2026-05-04 17:09 | 38.90581 | 20.27474 | 40125 ft | 430 kts | 320° |
| 2026-05-04 17:09 | 38.95155 | 20.22517 | 40122 ft | 430 kts | 320° |
| 2026-05-04 17:10 | 39.06553 | 20.10128 | 40114 ft | 430 kts | 320° |
| 2026-05-04 17:11 | 39.11119 | 20.05150 | 40121 ft | 430 kts | 320° |
| 2026-05-04 17:12 | 39.17965 | 19.97669 | 40122 ft | 431 kts | 320° |
| 2026-05-04 17:13 | 39.29359 | 19.85175 | 40117 ft | 432 kts | 320° |
| 2026-05-04 17:14 | 39.38501 | 19.75111 | 40103 ft | 431 kts | 320° |
| 2026-05-04 17:15 | 39.45308 | 19.67593 | 40121 ft | 431 kts | 320° |
| 2026-05-04 17:16 | 39.54424 | 19.57495 | 40113 ft | 431 kts | 320° |
| 2026-05-04 17:17 | 39.63500 | 19.47404 | 40116 ft | 431 kts | 319° |
| 2026-05-04 17:18 | 39.72598 | 19.37253 | 40116 ft | 431 kts | 319° |
| 2026-05-04 17:19 | 39.81656 | 19.27109 | 40118 ft | 431 kts | 319° |
| 2026-05-04 17:20 | 39.90737 | 19.16902 | 40118 ft | 431 kts | 319° |
| 2026-05-04 17:20 | 39.97510 | 19.09265 | 40119 ft | 431 kts | 319° |
| 2026-05-04 17:21 | 40.06239 | 18.98578 | 40123 ft | 431 kts | 310° |
| 2026-05-04 17:22 | 40.09713 | 18.92205 | 40120 ft | 431 kts | 304° |
| 2026-05-04 17:23 | 40.16253 | 18.79113 | 40115 ft | 432 kts | 304° |
| 2026-05-04 17:24 | 40.21181 | 18.69281 | 40110 ft | 430 kts | 304° |
| 2026-05-04 17:25 | 40.27700 | 18.56255 | 40109 ft | 428 kts | 304° |
| 2026-05-04 17:26 | 40.34210 | 18.43194 | 40106 ft | 428 kts | 304° |
| 2026-05-04 17:27 | 40.42279 | 18.26927 | 40104 ft | 426 kts | 304° |
| 2026-05-04 17:28 | 40.48716 | 18.13889 | 40107 ft | 425 kts | 304° |
| 2026-05-04 17:29 | 40.58318 | 17.94338 | 40107 ft | 426 kts | 304° |
| 2026-05-04 17:31 | 40.66351 | 17.77887 | 40111 ft | 429 kts | 304° |
| 2026-05-04 17:32 | 40.74356 | 17.61404 | 40112 ft | 427 kts | 303° |
| 2026-05-04 17:33 | 40.80735 | 17.48207 | 40120 ft | 426 kts | 303° |
| 2026-05-04 17:34 | 40.87053 | 17.35080 | 40113 ft | 424 kts | 303° |
| 2026-05-04 17:35 | 40.94901 | 17.18697 | 40127 ft | 423 kts | 303° |
| 2026-05-04 17:36 | 40.98039 | 17.12121 | 40121 ft | 423 kts | 303° |
| 2026-05-04 17:36 | 41.01174 | 17.05536 | 40123 ft | 423 kts | 303° |
| 2026-05-04 17:37 | 41.04306 | 16.98944 | 40130 ft | 423 kts | 303° |
| 2026-05-04 17:37 | 41.07436 | 16.92343 | 40115 ft | 423 kts | 303° |
| 2026-05-04 17:38 | 41.10540 | 16.85782 | 40096 ft | 423 kts | 303° |
| 2026-05-04 17:38 | 41.13662 | 16.79171 | 40098 ft | 423 kts | 303° |
| 2026-05-04 17:39 | 41.18544 | 16.69438 | 40089 ft | 423 kts | 306° |
| 2026-05-04 17:39 | 41.21912 | 16.63047 | 40111 ft | 422 kts | 305° |
| 2026-05-04 17:40 | 41.25235 | 16.56683 | 40108 ft | 422 kts | 305° |
| 2026-05-04 17:40 | 41.28560 | 16.50256 | 40109 ft | 422 kts | 305° |
| 2026-05-04 17:41 | 41.31875 | 16.43817 | 40101 ft | 422 kts | 305° |
| 2026-05-04 17:41 | 41.35185 | 16.37371 | 40120 ft | 422 kts | 305° |
| 2026-05-04 17:42 | 41.38491 | 16.30922 | 40114 ft | 421 kts | 304° |
| 2026-05-04 17:42 | 41.41769 | 16.24514 | 40112 ft | 421 kts | 304° |
| 2026-05-04 17:43 | 41.45064 | 16.18059 | 40104 ft | 421 kts | 304° |
| 2026-05-04 17:43 | 41.48352 | 16.11604 | 40108 ft | 421 kts | 304° |
| 2026-05-04 17:44 | 41.51642 | 16.05133 | 40113 ft | 421 kts | 304° |
| 2026-05-04 17:44 | 41.54905 | 15.98700 | 40099 ft | 422 kts | 304° |
| 2026-05-04 17:45 | 41.58188 | 15.92216 | 40106 ft | 421 kts | 304° |
| 2026-05-04 17:45 | 41.61466 | 15.85724 | 40101 ft | 421 kts | 304° |
| 2026-05-04 17:46 | 41.64740 | 15.79229 | 40103 ft | 421 kts | 304° |
| 2026-05-04 17:46 | 41.67984 | 15.72778 | 40083 ft | 421 kts | 304° |
| 2026-05-04 17:47 | 41.71243 | 15.66285 | 40098 ft | 420 kts | 304° |
| 2026-05-04 17:47 | 41.74498 | 15.59787 | 40091 ft | 420 kts | 304° |
| 2026-05-04 17:48 | 41.77755 | 15.53271 | 40104 ft | 421 kts | 304° |
| 2026-05-04 17:48 | 41.80988 | 15.46787 | 40094 ft | 422 kts | 304° |
| 2026-05-04 17:49 | 41.84243 | 15.40245 | 40090 ft | 422 kts | 304° |
| 2026-05-04 17:49 | 41.87498 | 15.33690 | 40077 ft | 422 kts | 304° |
| 2026-05-04 17:50 | 41.90747 | 15.27133 | 40057 ft | 422 kts | 303° |
| 2026-05-04 17:50 | 41.93971 | 15.20611 | 40071 ft | 422 kts | 303° |
| 2026-05-04 17:51 | 41.97212 | 15.14043 | 40078 ft | 422 kts | 303° |
| 2026-05-04 17:51 | 42.00449 | 15.07466 | 40076 ft | 422 kts | 303° |
| 2026-05-04 17:52 | 42.03685 | 15.00878 | 40087 ft | 422 kts | 303° |
| 2026-05-04 17:52 | 42.06920 | 14.94277 | 40081 ft | 423 kts | 303° |
| 2026-05-04 17:53 | 42.10132 | 14.87710 | 40072 ft | 423 kts | 303° |
| 2026-05-04 17:53 | 42.13362 | 14.81091 | 40074 ft | 423 kts | 303° |
| 2026-05-04 17:54 | 42.16589 | 14.74464 | 40068 ft | 423 kts | 303° |
| 2026-05-04 17:54 | 42.19812 | 14.67828 | 40071 ft | 423 kts | 303° |
| 2026-05-04 17:55 | 42.23009 | 14.61233 | 40074 ft | 423 kts | 303° |
| 2026-05-04 17:55 | 42.26225 | 14.54585 | 40074 ft | 423 kts | 303° |
| 2026-05-04 17:56 | 42.29436 | 14.47930 | 40076 ft | 423 kts | 303° |
| 2026-05-04 17:56 | 42.32644 | 14.41270 | 40083 ft | 423 kts | 303° |
| 2026-05-04 17:57 | 42.35828 | 14.34642 | 40081 ft | 423 kts | 303° |
| 2026-05-04 17:57 | 42.39031 | 14.27960 | 40077 ft | 424 kts | 303° |
| 2026-05-04 17:58 | 42.42233 | 14.21268 | 40073 ft | 424 kts | 302° |
| 2026-05-04 17:58 | 42.45487 | 14.14620 | 40070 ft | 424 kts | 304° |
| 2026-05-04 17:59 | 42.48899 | 14.08182 | 40077 ft | 423 kts | 305° |
| 2026-05-04 18:00 | 42.54062 | 13.98481 | 40079 ft | 423 kts | 305° |
| 2026-05-04 18:00 | 42.57473 | 13.91989 | 40085 ft | 422 kts | 304° |
| 2026-05-04 18:01 | 42.60872 | 13.85484 | 40090 ft | 423 kts | 304° |
| 2026-05-04 18:01 | 42.64247 | 13.79006 | 40082 ft | 423 kts | 304° |
| 2026-05-04 18:02 | 42.69340 | 13.69202 | 40091 ft | 423 kts | 304° |
| 2026-05-04 18:02 | 42.72733 | 13.62657 | 40081 ft | 423 kts | 304° |
| 2026-05-04 18:03 | 42.76118 | 13.56110 | 40096 ft | 423 kts | 304° |
| 2026-05-04 18:03 | 42.79479 | 13.49596 | 40095 ft | 424 kts | 304° |
| 2026-05-04 18:04 | 42.82863 | 13.43023 | 40101 ft | 424 kts | 304° |
| 2026-05-04 18:05 | 42.87932 | 13.33153 | 40120 ft | 424 kts | 303° |
| 2026-05-04 18:05 | 42.91309 | 13.26556 | 40107 ft | 425 kts | 303° |
| 2026-05-04 18:06 | 42.96359 | 13.16664 | 40116 ft | 426 kts | 303° |
| 2026-05-04 18:06 | 42.99743 | 13.10018 | 40095 ft | 427 kts | 303° |
| 2026-05-04 18:07 | 43.03124 | 13.03363 | 40101 ft | 426 kts | 303° |
| 2026-05-04 18:07 | 43.05923 | 12.97845 | 40119 ft | 424 kts | 303° |
| 2026-05-04 18:08 | 43.09276 | 12.91219 | 40133 ft | 423 kts | 303° |
| 2026-05-04 18:08 | 43.13156 | 12.83523 | 40101 ft | 423 kts | 303° |
| 2026-05-04 18:09 | 43.19295 | 12.71327 | 40105 ft | 426 kts | 302° |
| 2026-05-04 18:10 | 43.22655 | 12.64626 | 40101 ft | 427 kts | 302° |
| 2026-05-04 18:10 | 43.26016 | 12.57907 | 40101 ft | 427 kts | 302° |
| 2026-05-04 18:11 | 43.29353 | 12.51223 | 40101 ft | 428 kts | 302° |
| 2026-05-04 18:11 | 43.32710 | 12.44480 | 40112 ft | 428 kts | 302° |
| 2026-05-04 18:12 | 43.36064 | 12.37732 | 40123 ft | 428 kts | 302° |
| 2026-05-04 18:12 | 43.39415 | 12.30972 | 40129 ft | 427 kts | 302° |
| 2026-05-04 18:13 | 43.42758 | 12.24213 | 40118 ft | 427 kts | 302° |
| 2026-05-04 18:14 | 43.47736 | 12.14119 | 40120 ft | 426 kts | 302° |
| 2026-05-04 18:14 | 43.51059 | 12.07364 | 40120 ft | 426 kts | 302° |
| 2026-05-04 18:15 | 43.57669 | 11.93879 | 40122 ft | 426 kts | 301° |
| 2026-05-04 18:16 | 43.60977 | 11.87106 | 40134 ft | 426 kts | 301° |
| 2026-05-04 18:16 | 43.64286 | 11.80313 | 40124 ft | 426 kts | 301° |
| 2026-05-04 18:17 | 43.69240 | 11.70118 | 40122 ft | 426 kts | 301° |
| 2026-05-04 18:18 | 43.74171 | 11.59934 | 40113 ft | 427 kts | 300° |
| 2026-05-04 18:18 | 43.77474 | 11.53092 | 40119 ft | 428 kts | 300° |
| 2026-05-04 18:19 | 43.82436 | 11.42785 | 40115 ft | 429 kts | 300° |
| 2026-05-04 18:19 | 43.85717 | 11.35949 | 40125 ft | 429 kts | 300° |
| 2026-05-04 18:20 | 43.89021 | 11.29049 | 40120 ft | 430 kts | 300° |
| 2026-05-04 18:20 | 43.92326 | 11.22130 | 40112 ft | 430 kts | 300° |
| 2026-05-04 18:21 | 43.95628 | 11.15200 | 40116 ft | 431 kts | 300° |
| 2026-05-04 18:21 | 43.98930 | 11.08253 | 40114 ft | 431 kts | 300° |
| 2026-05-04 18:22 | 44.02202 | 11.01358 | 40146 ft | 430 kts | 300° |
| 2026-05-04 18:22 | 44.05592 | 10.94494 | 40167 ft | 431 kts | 302° |
| 2026-05-04 18:23 | 44.09104 | 10.87739 | 40185 ft | 431 kts | 302° |
| 2026-05-04 18:23 | 44.12615 | 10.80965 | 40222 ft | 432 kts | 302° |
| 2026-05-04 18:24 | 44.16084 | 10.74206 | 40211 ft | 432 kts | 302° |
| 2026-05-04 18:24 | 44.19566 | 10.67381 | 40237 ft | 433 kts | 301° |
| 2026-05-04 18:25 | 44.23054 | 10.60523 | 40227 ft | 434 kts | 301° |
| 2026-05-04 18:25 | 44.26543 | 10.53644 | 40209 ft | 435 kts | 301° |
| 2026-05-04 18:26 | 44.30018 | 10.46780 | 40201 ft | 436 kts | 301° |
| 2026-05-04 18:26 | 44.33522 | 10.39842 | 40183 ft | 438 kts | 301° |
| 2026-05-04 18:27 | 44.37029 | 10.32882 | 40172 ft | 438 kts | 301° |
| 2026-05-04 18:27 | 44.40529 | 10.25923 | 40150 ft | 437 kts | 301° |
| 2026-05-04 18:28 | 44.44021 | 10.18959 | 40156 ft | 437 kts | 301° |
| 2026-05-04 18:28 | 44.47482 | 10.12039 | 40127 ft | 437 kts | 301° |
| 2026-05-04 18:29 | 44.50966 | 10.05057 | 40121 ft | 437 kts | 301° |
| 2026-05-04 18:29 | 44.54446 | 9.98067 | 40095 ft | 438 kts | 301° |
| 2026-05-04 18:30 | 44.59666 | 9.87549 | 40073 ft | 438 kts | 301° |
| 2026-05-04 18:31 | 44.63113 | 9.80582 | 40070 ft | 438 kts | 301° |
| 2026-05-04 18:31 | 44.66587 | 9.73545 | 40062 ft | 439 kts | 301° |
| 2026-05-04 18:32 | 44.70063 | 9.66485 | 40056 ft | 439 kts | 301° |
| 2026-05-04 18:32 | 44.73542 | 9.59403 | 40052 ft | 441 kts | 301° |
| 2026-05-04 18:33 | 44.77021 | 9.52302 | 40076 ft | 441 kts | 300° |
| 2026-05-04 18:33 | 44.80482 | 9.45221 | 40073 ft | 443 kts | 300° |
| 2026-05-04 18:34 | 44.83972 | 9.38063 | 40067 ft | 444 kts | 300° |
| 2026-05-04 18:34 | 44.87471 | 9.30868 | 40080 ft | 445 kts | 300° |
| 2026-05-04 18:35 | 44.90972 | 9.23655 | 40069 ft | 446 kts | 300° |
| 2026-05-04 18:35 | 44.94454 | 9.16459 | 40076 ft | 447 kts | 300° |
| 2026-05-04 18:36 | 44.97958 | 9.09200 | 40068 ft | 448 kts | 300° |
| 2026-05-04 18:36 | 45.01463 | 9.01920 | 40066 ft | 448 kts | 300° |
| 2026-05-04 18:37 | 45.04963 | 8.94632 | 40108 ft | 448 kts | 300° |
| 2026-05-04 18:37 | 45.08436 | 8.87382 | 40105 ft | 448 kts | 300° |
| 2026-05-04 18:38 | 45.11931 | 8.80069 | 40103 ft | 449 kts | 300° |
| 2026-05-04 18:38 | 45.15421 | 8.72746 | 40102 ft | 449 kts | 300° |
| 2026-05-04 18:39 | 45.18910 | 8.65407 | 40075 ft | 449 kts | 300° |
| 2026-05-04 18:39 | 45.22371 | 8.58107 | 40076 ft | 449 kts | 300° |
| 2026-05-04 18:40 | 45.25850 | 8.50752 | 40098 ft | 449 kts | 300° |
| 2026-05-04 18:40 | 45.29328 | 8.43375 | 40085 ft | 450 kts | 300° |
| 2026-05-04 18:41 | 45.32808 | 8.35980 | 40079 ft | 450 kts | 300° |
| 2026-05-04 18:41 | 45.36260 | 8.28625 | 40083 ft | 450 kts | 300° |
| 2026-05-04 18:42 | 45.39732 | 8.21207 | 40082 ft | 451 kts | 300° |
| 2026-05-04 18:42 | 45.43202 | 8.13774 | 40096 ft | 451 kts | 300° |
| 2026-05-04 18:43 | 45.46670 | 8.06324 | 40098 ft | 451 kts | 300° |
| 2026-05-04 18:43 | 45.50113 | 7.98912 | 40094 ft | 452 kts | 300° |
| 2026-05-04 18:44 | 45.53577 | 7.91432 | 40114 ft | 452 kts | 300° |
| 2026-05-04 18:44 | 45.57040 | 7.83935 | 40117 ft | 453 kts | 300° |
| 2026-05-04 18:45 | 45.60510 | 7.76403 | 40134 ft | 455 kts | 299° |
| 2026-05-04 18:45 | 45.63956 | 7.68901 | 40119 ft | 454 kts | 299° |
| 2026-05-04 18:46 | 45.67412 | 7.61365 | 40126 ft | 454 kts | 299° |
| 2026-05-04 18:46 | 45.70869 | 7.53797 | 40135 ft | 455 kts | 299° |
| 2026-05-04 18:47 | 45.74321 | 7.46214 | 40146 ft | 455 kts | 299° |
| 2026-05-04 18:47 | 45.77848 | 7.38672 | 40120 ft | 459 kts | 304° |
| 2026-05-04 18:48 | 45.82241 | 7.32033 | 40135 ft | 466 kts | 315° |
| 2026-05-04 18:48 | 45.87478 | 7.26492 | 40131 ft | 469 kts | 322° |
| 2026-05-04 18:49 | 45.92858 | 7.21196 | 40115 ft | 469 kts | 321° |
| 2026-05-04 18:49 | 45.98174 | 7.15794 | 40061 ft | 467 kts | 320° |
| 2026-05-04 18:50 | 46.03422 | 7.10399 | 40037 ft | 466 kts | 320° |
| 2026-05-04 18:50 | 46.08697 | 7.04961 | 40056 ft | 466 kts | 320° |
| 2026-05-04 18:51 | 46.13974 | 6.99526 | 40030 ft | 466 kts | 320° |
| 2026-05-04 18:51 | 46.19227 | 6.94108 | 40022 ft | 460 kts | 320° |
| 2026-05-04 18:52 | 46.24470 | 6.88668 | 40037 ft | 470 kts | 320° |
| 2026-05-04 18:52 | 46.29805 | 6.83122 | 40032 ft | 474 kts | 320° |
| 2026-05-04 18:53 | 46.35128 | 6.77587 | 40025 ft | 474 kts | 320° |
| 2026-05-04 18:53 | 46.40472 | 6.71999 | 40031 ft | 473 kts | 318° |
| 2026-05-04 18:54 | 46.45101 | 6.65417 | 40028 ft | 463 kts | 304° |
| 2026-05-04 18:54 | 46.48580 | 6.57668 | 40033 ft | 456 kts | 296° |
| 2026-05-04 18:55 | 46.51663 | 6.49708 | 40025 ft | 455 kts | 295° |
| 2026-05-04 18:55 | 46.56337 | 6.37703 | 40040 ft | 455 kts | 295° |
| 2026-05-04 18:56 | 46.59471 | 6.29720 | 40032 ft | 455 kts | 295° |
| 2026-05-04 18:56 | 46.62609 | 6.21711 | 40024 ft | 456 kts | 295° |
| 2026-05-04 18:57 | 46.65717 | 6.13753 | 40016 ft | 456 kts | 295° |
| 2026-05-04 18:57 | 46.68846 | 6.05716 | 40036 ft | 456 kts | 295° |
| 2026-05-04 18:58 | 46.71972 | 5.97663 | 40005 ft | 457 kts | 295° |
| 2026-05-04 18:58 | 46.75097 | 5.89586 | 40016 ft | 458 kts | 295° |
| 2026-05-04 18:59 | 46.78221 | 5.81493 | 40019 ft | 458 kts | 295° |
| 2026-05-04 18:59 | 46.81898 | 5.73841 | 40021 ft | 466 kts | 310° |
| 2026-05-04 19:00 | 46.87031 | 5.68068 | 40008 ft | 477 kts | 327° |
| 2026-05-04 19:00 | 46.92886 | 5.63459 | 40006 ft | 479 kts | 328° |
| 2026-05-04 19:01 | 46.98766 | 5.58884 | 39972 ft | 479 kts | 327° |
| 2026-05-04 19:01 | 47.04622 | 5.54220 | 39979 ft | 479 kts | 327° |
| 2026-05-04 19:02 | 47.10439 | 5.49521 | 39403 ft | 485 kts | 327° |
| 2026-05-04 19:02 | 47.13389 | 5.47129 | 38827 ft | 483 kts | 327° |
| 2026-05-04 19:02 | 47.16328 | 5.44746 | 38044 ft | 482 kts | 327° |
| 2026-05-04 19:03 | 47.19236 | 5.42389 | 37562 ft | 474 kts | 327° |
| 2026-05-04 19:03 | 47.22107 | 5.40060 | 37091 ft | 467 kts | 326° |
| 2026-05-04 19:03 | 47.24930 | 5.37766 | 36671 ft | 461 kts | 327° |
| 2026-05-04 19:03 | 47.27712 | 5.35473 | 36196 ft | 456 kts | 324° |
| 2026-05-04 19:04 | 47.30331 | 5.32860 | 35656 ft | 454 kts | 317° |
| 2026-05-04 19:04 | 47.32749 | 5.29873 | 35193 ft | 453 kts | 315° |
| 2026-05-04 19:04 | 47.35098 | 5.26885 | 34846 ft | 451 kts | 314° |
| 2026-05-04 19:04 | 47.37464 | 5.23865 | 34546 ft | 448 kts | 314° |
| 2026-05-04 19:05 | 47.39814 | 5.20872 | 34263 ft | 445 kts | 314° |
| 2026-05-04 19:05 | 47.42156 | 5.17902 | 34040 ft | 442 kts | 315° |
| 2026-05-04 19:05 | 47.46826 | 5.11999 | 33979 ft | 445 kts | 315° |
| 2026-05-04 19:06 | 47.51529 | 5.06058 | 33908 ft | 443 kts | 315° |
| 2026-05-04 19:06 | 47.53877 | 5.03094 | 33350 ft | 442 kts | 315° |
| 2026-05-04 19:06 | 47.56168 | 5.00198 | 32905 ft | 437 kts | 315° |
| 2026-05-04 19:07 | 47.58466 | 4.97291 | 32439 ft | 432 kts | 315° |
| 2026-05-04 19:07 | 47.60737 | 4.94414 | 31990 ft | 427 kts | 315° |
| 2026-05-04 19:07 | 47.62982 | 4.91565 | 31562 ft | 423 kts | 315° |
| 2026-05-04 19:07 | 47.65204 | 4.88740 | 31130 ft | 418 kts | 315° |
| 2026-05-04 19:08 | 47.67403 | 4.85940 | 30689 ft | 415 kts | 315° |
| 2026-05-04 19:08 | 47.69583 | 4.83162 | 30247 ft | 412 kts | 315° |
| 2026-05-04 19:08 | 47.71747 | 4.80401 | 29796 ft | 409 kts | 314° |
| 2026-05-04 19:08 | 47.73895 | 4.77656 | 29311 ft | 406 kts | 315° |
| 2026-05-04 19:09 | 47.76026 | 4.74929 | 28835 ft | 403 kts | 315° |
| 2026-05-04 19:09 | 47.78116 | 4.72253 | 28376 ft | 400 kts | 315° |
| 2026-05-04 19:09 | 47.80216 | 4.69562 | 27912 ft | 397 kts | 315° |
| 2026-05-04 19:09 | 47.82304 | 4.66881 | 27473 ft | 395 kts | 315° |
| 2026-05-04 19:10 | 47.84380 | 4.64215 | 27064 ft | 393 kts | 315° |
| 2026-05-04 19:10 | 47.86447 | 4.61557 | 26611 ft | 392 kts | 315° |
| 2026-05-04 19:10 | 47.88497 | 4.58917 | 26172 ft | 389 kts | 315° |
| 2026-05-04 19:10 | 47.90540 | 4.56284 | 25745 ft | 387 kts | 315° |
| 2026-05-04 19:11 | 47.92573 | 4.53661 | 25331 ft | 386 kts | 315° |
| 2026-05-04 19:11 | 47.94600 | 4.51042 | 24917 ft | 385 kts | 315° |
| 2026-05-04 19:11 | 47.96621 | 4.48429 | 24491 ft | 384 kts | 315° |
| 2026-05-04 19:11 | 47.98637 | 4.45821 | 24084 ft | 383 kts | 315° |
| 2026-05-04 19:12 | 48.00621 | 4.43250 | 23678 ft | 382 kts | 316° |
| 2026-05-04 19:12 | 48.04552 | 4.38156 | 22772 ft | 367 kts | 316° |
| 2026-05-04 19:12 | 48.06476 | 4.35654 | 22350 ft | 366 kts | 316° |
| 2026-05-04 19:13 | 48.08395 | 4.33156 | 21967 ft | 365 kts | 316° |
| 2026-05-04 19:13 | 48.10310 | 4.30659 | 21577 ft | 365 kts | 316° |
| 2026-05-04 19:13 | 48.12221 | 4.28167 | 21172 ft | 364 kts | 316° |
| 2026-05-04 19:13 | 48.14128 | 4.25678 | 20794 ft | 364 kts | 316° |
| 2026-05-04 19:14 | 48.16017 | 4.23210 | 20371 ft | 352 kts | 316° |
| 2026-05-04 19:14 | 48.17824 | 4.20851 | 20011 ft | 349 kts | 316° |
| 2026-05-04 19:14 | 48.19650 | 4.18461 | 19642 ft | 349 kts | 316° |
| 2026-05-04 19:14 | 48.21478 | 4.16065 | 19237 ft | 349 kts | 316° |
| 2026-05-04 19:15 | 48.23307 | 4.13664 | 18841 ft | 349 kts | 316° |
| 2026-05-04 19:15 | 48.25098 | 4.11315 | 18434 ft | 334 kts | 316° |
| 2026-05-04 19:15 | 48.26844 | 4.09022 | 18062 ft | 334 kts | 316° |
| 2026-05-04 19:15 | 48.28593 | 4.06721 | 17634 ft | 335 kts | 316° |
| 2026-05-04 19:16 | 48.30342 | 4.04416 | 17243 ft | 335 kts | 316° |
| 2026-05-04 19:16 | 48.32093 | 4.02108 | 16855 ft | 335 kts | 316° |
| 2026-05-04 19:16 | 48.33841 | 3.99802 | 16474 ft | 335 kts | 316° |
| 2026-05-04 19:16 | 48.35588 | 3.97495 | 16081 ft | 334 kts | 316° |
| 2026-05-04 19:17 | 48.37337 | 3.95184 | 15700 ft | 334 kts | 317° |
| 2026-05-04 19:17 | 48.39059 | 3.92904 | 15313 ft | 335 kts | 317° |
| 2026-05-04 19:17 | 48.40808 | 3.90589 | 14918 ft | 335 kts | 317° |
| 2026-05-04 19:17 | 48.42555 | 3.88273 | 14525 ft | 335 kts | 317° |
| 2026-05-04 19:18 | 48.44303 | 3.85954 | 14142 ft | 335 kts | 317° |
| 2026-05-04 19:18 | 48.46031 | 3.83661 | 13719 ft | 321 kts | 317° |
| 2026-05-04 19:18 | 48.47678 | 3.81472 | 13327 ft | 315 kts | 317° |
| 2026-05-04 19:18 | 48.49322 | 3.79286 | 12963 ft | 315 kts | 317° |
| 2026-05-04 19:19 | 48.50938 | 3.77135 | 12938 ft | 307 kts | 317° |
| 2026-05-04 19:19 | 48.52555 | 3.74978 | 12948 ft | 313 kts | 317° |
| 2026-05-04 19:19 | 48.54156 | 3.72730 | 12927 ft | 314 kts | 309° |
| 2026-05-04 19:19 | 48.55427 | 3.70091 | 12944 ft | 316 kts | 301° |
| 2026-05-04 19:20 | 48.56572 | 3.67255 | 12935 ft | 317 kts | 300° |
| 2026-05-04 19:20 | 48.57719 | 3.64408 | 12935 ft | 318 kts | 301° |
| 2026-05-04 19:20 | 48.58897 | 3.61586 | 12929 ft | 318 kts | 301° |
| 2026-05-04 19:20 | 48.60090 | 3.58784 | 12936 ft | 317 kts | 302° |
| 2026-05-04 19:21 | 48.61286 | 3.55991 | 12934 ft | 316 kts | 302° |
| 2026-05-04 19:21 | 48.62479 | 3.53206 | 12933 ft | 315 kts | 302° |
| 2026-05-04 19:21 | 48.63669 | 3.50430 | 12935 ft | 314 kts | 302° |
| 2026-05-04 19:21 | 48.64854 | 3.47660 | 12937 ft | 314 kts | 302° |
| 2026-05-04 19:22 | 48.66039 | 3.44885 | 12932 ft | 314 kts | 303° |
| 2026-05-04 19:22 | 48.67226 | 3.42106 | 12937 ft | 315 kts | 303° |
| 2026-05-04 19:22 | 48.68399 | 3.39355 | 12940 ft | 316 kts | 303° |
| 2026-05-04 19:22 | 48.69589 | 3.36561 | 12940 ft | 316 kts | 303° |
| 2026-05-04 19:23 | 48.70781 | 3.33759 | 12942 ft | 317 kts | 303° |
| 2026-05-04 19:23 | 48.71977 | 3.30947 | 12940 ft | 318 kts | 302° |
| 2026-05-04 19:23 | 48.73172 | 3.28132 | 12939 ft | 318 kts | 302° |
| 2026-05-04 19:23 | 48.74368 | 3.25312 | 12940 ft | 318 kts | 302° |
| 2026-05-04 19:24 | 48.75564 | 3.22490 | 12938 ft | 318 kts | 302° |
| 2026-05-04 19:24 | 48.76760 | 3.19664 | 12937 ft | 318 kts | 302° |
| 2026-05-04 19:24 | 48.77936 | 3.16881 | 12923 ft | 308 kts | 302° |
| 2026-05-04 19:24 | 48.79068 | 3.14201 | 12918 ft | 296 kts | 302° |
| 2026-05-04 19:25 | 48.80154 | 3.11628 | 12927 ft | 292 kts | 302° |
| 2026-05-04 19:25 | 48.81247 | 3.09036 | 12935 ft | 292 kts | 302° |
| 2026-05-04 19:25 | 48.82341 | 3.06440 | 12947 ft | 292 kts | 302° |
| 2026-05-04 19:25 | 48.83438 | 3.03832 | 12943 ft | 294 kts | 302° |
| 2026-05-04 19:26 | 48.84401 | 3.01137 | 12927 ft | 289 kts | 289° |
| 2026-05-04 19:26 | 48.84908 | 2.98148 | 12951 ft | 296 kts | 281° |
| 2026-05-04 19:26 | 48.85276 | 2.95059 | 12942 ft | 297 kts | 279° |
| 2026-05-04 19:26 | 48.85626 | 2.91980 | 12931 ft | 295 kts | 279° |
| 2026-05-04 19:27 | 48.85987 | 2.88922 | 12930 ft | 294 kts | 280° |
| 2026-05-04 19:27 | 48.86363 | 2.85879 | 12932 ft | 293 kts | 281° |
| 2026-05-04 19:27 | 48.86744 | 2.82889 | 12934 ft | 292 kts | 281° |
| 2026-05-04 19:27 | 48.87138 | 2.79862 | 12937 ft | 292 kts | 281° |
| 2026-05-04 19:28 | 48.87537 | 2.76835 | 12941 ft | 293 kts | 281° |
| 2026-05-04 19:28 | 48.87939 | 2.73804 | 12940 ft | 293 kts | 281° |
| 2026-05-04 19:28 | 48.88345 | 2.70760 | 12942 ft | 294 kts | 281° |
| 2026-05-04 19:28 | 48.88751 | 2.67712 | 12943 ft | 295 kts | 281° |
| 2026-05-04 19:29 | 48.89158 | 2.64654 | 12936 ft | 295 kts | 281° |
| 2026-05-04 19:29 | 48.89559 | 2.61643 | 12511 ft | 292 kts | 281° |
| 2026-05-04 19:29 | 48.89963 | 2.58604 | 12110 ft | 295 kts | 281° |
| 2026-05-04 19:29 | 48.90371 | 2.55528 | 11601 ft | 294 kts | 281° |
| 2026-05-04 19:30 | 48.90772 | 2.52500 | 11104 ft | 294 kts | 281° |
| 2026-05-04 19:30 | 48.91176 | 2.49435 | 10627 ft | 294 kts | 281° |
| 2026-05-04 19:30 | 48.91562 | 2.46470 | 10106 ft | 279 kts | 279° |
| 2026-05-04 19:30 | 48.91649 | 2.43612 | 9600 ft | 273 kts | 266° |
| 2026-05-04 19:31 | 48.91481 | 2.40711 | 9092 ft | 276 kts | 263° |
| 2026-05-04 19:31 | 48.91272 | 2.37798 | 8591 ft | 282 kts | 263° |
| 2026-05-04 19:31 | 48.91063 | 2.34785 | 8098 ft | 289 kts | 264° |
| 2026-05-04 19:31 | 48.90866 | 2.31756 | 7590 ft | 282 kts | 264° |
| 2026-05-04 19:32 | 48.90688 | 2.28868 | 7073 ft | 267 kts | 264° |
| 2026-05-04 19:32 | 48.90522 | 2.26088 | 6578 ft | 263 kts | 265° |
| 2026-05-04 19:32 | 48.90359 | 2.23306 | 6101 ft | 265 kts | 265° |
| 2026-05-04 19:32 | 48.90197 | 2.20491 | 5625 ft | 273 kts | 265° |
| 2026-05-04 19:33 | 48.90030 | 2.17620 | 5196 ft | 278 kts | 265° |
| 2026-05-04 19:33 | 48.89964 | 2.14762 | 5023 ft | 263 kts | 279° |
| 2026-05-04 19:33 | 48.90622 | 2.12273 | 5018 ft | 250 kts | 310° |
| 2026-05-04 19:33 | 48.91929 | 2.10728 | 5010 ft | 233 kts | 341° |
| 2026-05-04 19:34 | 48.93471 | 2.10491 | 4992 ft | 221 kts | 14° |
| 2026-05-04 19:34 | 48.94801 | 2.11552 | 4994 ft | 217 kts | 44° |
| 2026-05-04 19:34 | 48.95822 | 2.13259 | 5010 ft | 221 kts | 51° |
| 2026-05-04 19:34 | 48.96707 | 2.15153 | 4992 ft | 217 kts | 67° |
| 2026-05-04 19:35 | 48.97060 | 2.17290 | 4994 ft | 201 kts | 80° |
| 2026-05-04 19:35 | 48.97254 | 2.19337 | 4984 ft | 191 kts | 83° |
| 2026-05-04 19:35 | 48.97395 | 2.21364 | 4901 ft | 196 kts | 84° |
| 2026-05-04 19:35 | 48.97515 | 2.23416 | 4630 ft | 197 kts | 85° |
| 2026-05-04 19:36 | 48.97628 | 2.25487 | 4354 ft | 196 kts | 85° |
| 2026-05-04 19:36 | 48.97738 | 2.27547 | 4084 ft | 194 kts | 85° |
| 2026-05-04 19:36 | 48.97847 | 2.29588 | 3851 ft | 193 kts | 85° |
| 2026-05-04 19:36 | 48.97955 | 2.31609 | 3590 ft | 190 kts | 85° |
| 2026-05-04 19:37 | 48.98058 | 2.33546 | 3358 ft | 175 kts | 85° |
| 2026-05-04 19:37 | 48.98152 | 2.35310 | 3103 ft | 159 kts | 84° |
| 2026-05-04 19:37 | 48.98237 | 2.36897 | 2912 ft | 143 kts | 84° |
| 2026-05-04 19:37 | 48.98315 | 2.38356 | 2749 ft | 136 kts | 84° |
| 2026-05-04 19:38 | 48.98391 | 2.39776 | 2567 ft | 135 kts | 84° |
| 2026-05-04 19:38 | 48.98468 | 2.41199 | 2383 ft | 135 kts | 84° |
| 2026-05-04 19:38 | 48.98544 | 2.42628 | 2190 ft | 135 kts | 84° |
| 2026-05-04 19:38 | 48.98623 | 2.44085 | 1999 ft | 140 kts | 84° |
| 2026-05-04 19:39 | 48.98692 | 2.45581 | 1829 ft | 143 kts | 83° |
| 2026-05-04 19:39 | 48.98779 | 2.47055 | 1639 ft | 141 kts | 83° |
| 2026-05-04 19:39 | 48.98857 | 2.48536 | 1411 ft | 138 kts | 84° |
| 2026-05-04 19:39 | 48.98940 | 2.50006 | 1234 ft | 139 kts | 84° |
| 2026-05-04 19:40 | 48.99014 | 2.51468 | 1023 ft | 138 kts | 85° |
| 2026-05-04 19:40 | 48.99090 | 2.52906 | 851 ft | 134 kts | 83° |
| 2026-05-04 19:40 | 48.99169 | 2.54322 | 669 ft | 134 kts | 83° |
| 2026-05-04 19:40 | 48.99251 | 2.55738 | 515 ft | 135 kts | 83° |
| 2026-05-04 19:41 | 48.99327 | 2.57157 | 378 ft | 128 kts | 84° |
| 2026-05-04 19:41 | 48.99390 | 2.58337 | 358 ft | 90 kts | 85° |
| 2026-05-04 19:41 | 48.99430 | 2.59076 | 357 ft | 63 kts | 85° |
| 2026-05-04 19:41 | 48.99460 | 2.59646 | 357 ft | 45 kts | 85° |
| 2026-05-04 19:42 | 48.99501 | 2.59881 | 368 ft | 18 kts | 59° |
| 2026-05-04 19:42 | 48.99572 | 2.59969 | 365 ft | 5 kts | 15° |
| 2026-05-04 19:42 | 48.99576 | 2.59970 | 365 ft | 0 kts | 13° |
| 2026-05-04 19:43 | 48.99595 | 2.59974 | 365 ft | 13 kts | 6° |
| 2026-05-04 19:43 | 48.99699 | 2.59969 | 359 ft | 15 kts | 356° |
| 2026-05-04 19:43 | 48.99805 | 2.59956 | 365 ft | 15 kts | 356° |
| 2026-05-04 19:43 | 48.99904 | 2.60004 | 367 ft | 15 kts | 39° |
| 2026-05-04 19:44 | 48.99994 | 2.60053 | 364 ft | 13 kts | 339° |
| 2026-05-04 19:44 | 49.00070 | 2.59981 | 366 ft | 13 kts | 319° |
| 2026-05-04 19:44 | 49.00091 | 2.59866 | 360 ft | 11 kts | 267° |
| 2026-05-04 19:44 | 49.00086 | 2.59755 | 364 ft | 11 kts | 266° |
| 2026-05-04 19:45 | 49.00082 | 2.59647 | 363 ft | 10 kts | 266° |
| 2026-05-04 19:45 | 49.00076 | 2.59538 | 360 ft | 10 kts | 265° |
| 2026-05-04 19:45 | 49.00071 | 2.59430 | 364 ft | 10 kts | 265° |
| 2026-05-04 19:45 | 49.00065 | 2.59321 | 364 ft | 11 kts | 265° |
| 2026-05-04 19:46 | 49.00054 | 2.59141 | 359 ft | 20 kts | 264° |
| 2026-05-04 19:46 | 49.00046 | 2.58976 | 361 ft | 11 kts | 271° |
| 2026-05-04 19:46 | 49.00100 | 2.58899 | 364 ft | 11 kts | 343° |
| 2026-05-04 19:46 | 49.00178 | 2.58885 | 364 ft | 11 kts | 355° |
| 2026-05-04 19:47 | 49.00257 | 2.58873 | 360 ft | 11 kts | 354° |
| 2026-05-04 19:47 | 49.00335 | 2.58864 | 359 ft | 11 kts | 355° |
| 2026-05-04 19:47 | 49.00372 | 2.58771 | 364 ft | 11 kts | 273° |
| 2026-05-04 19:47 | 49.00369 | 2.58652 | 363 ft | 11 kts | 267° |
| 2026-05-04 19:48 | 49.00368 | 2.58615 | 360 ft | 0 kts | 267° |